sensor_id;sensor_type;location;lat;lon;timestamp;P1;durP1;ratioP1;P2;durP2;ratioP2
33138;SDS011;19501;50.948;5.316;2022-08-19T00:01:50;38.13;;;26.83;;
33138;SDS011;19501;50.948;5.316;2022-08-19T00:04:19;43.22;;;28.40;;
33138;SDS011;19501;50.948;5.316;2022-08-19T00:06:46;35.28;;;26.85;;
33138;SDS011;19501;50.948;5.316;2022-08-19T00:09:15;36.30;;;26.35;;
33138;SDS011;19501;50.948;5.316;2022-08-19T00:11:44;40.22;;;27.80;;
33138;SDS011;19501;50.948;5.316;2022-08-19T00:14:10;38.13;;;26.48;;
33138;SDS011;19501;50.948;5.316;2022-08-19T00:16:37;37.28;;;26.58;;
33138;SDS011;19501;50.948;5.316;2022-08-19T00:19:04;33.63;;;25.08;;
33138;SDS011;19501;50.948;5.316;2022-08-19T00:21:30;36.63;;;25.60;;
33138;SDS011;19501;50.948;5.316;2022-08-19T00:23:56;34.90;;;26.35;;
33138;SDS011;19501;50.948;5.316;2022-08-19T00:26:23;36.83;;;27.48;;
33138;SDS011;19501;50.948;5.316;2022-08-19T00:28:50;37.17;;;28.13;;
33138;SDS011;19501;50.948;5.316;2022-08-19T00:31:16;37.92;;;27.10;;
33138;SDS011;19501;50.948;5.316;2022-08-19T00:33:41;39.08;;;28.98;;
33138;SDS011;19501;50.948;5.316;2022-08-19T00:36:08;35.00;;;26.23;;
33138;SDS011;19501;50.948;5.316;2022-08-19T00:38:35;36.40;;;25.27;;
33138;SDS011;19501;50.948;5.316;2022-08-19T00:41:04;37.70;;;26.20;;
33138;SDS011;19501;50.948;5.316;2022-08-19T00:43:30;38.50;;;28.08;;
33138;SDS011;19501;50.948;5.316;2022-08-19T00:45:56;41.72;;;28.23;;
33138;SDS011;19501;50.948;5.316;2022-08-19T00:48:22;37.63;;;28.52;;
33138;SDS011;19501;50.948;5.316;2022-08-19T00:50:48;40.88;;;27.92;;
33138;SDS011;19501;50.948;5.316;2022-08-19T00:53:19;42.80;;;26.90;;
33138;SDS011;19501;50.948;5.316;2022-08-19T00:55:47;39.75;;;28.77;;
33138;SDS011;19501;50.948;5.316;2022-08-19T00:58:16;42.08;;;29.88;;
33138;SDS011;19501;50.948;5.316;2022-08-19T01:00:44;38.80;;;28.45;;
33138;SDS011;19501;50.948;5.316;2022-08-19T01:03:12;37.97;;;26.70;;
33138;SDS011;19501;50.948;5.316;2022-08-19T01:05:41;40.35;;;28.02;;
33138;SDS011;19501;50.948;5.316;2022-08-19T01:08:09;40.38;;;29.27;;
33138;SDS011;19501;50.948;5.316;2022-08-19T01:10:48;42.58;;;29.70;;
33138;SDS011;19501;50.948;5.316;2022-08-19T01:13:17;42.85;;;27.60;;
33138;SDS011;19501;50.948;5.316;2022-08-19T01:15:49;39.90;;;28.38;;
33138;SDS011;19501;50.948;5.316;2022-08-19T01:18:18;40.28;;;29.17;;
33138;SDS011;19501;50.948;5.316;2022-08-19T01:20:45;41.63;;;29.80;;
33138;SDS011;19501;50.948;5.316;2022-08-19T01:23:12;44.60;;;30.60;;
33138;SDS011;19501;50.948;5.316;2022-08-19T01:25:42;46.50;;;32.58;;
33138;SDS011;19501;50.948;5.316;2022-08-19T01:28:15;44.25;;;31.23;;
33138;SDS011;19501;50.948;5.316;2022-08-19T01:30:47;44.95;;;30.48;;
33138;SDS011;19501;50.948;5.316;2022-08-19T01:33:13;43.72;;;31.40;;
33138;SDS011;19501;50.948;5.316;2022-08-19T01:35:39;41.80;;;30.05;;
33138;SDS011;19501;50.948;5.316;2022-08-19T01:38:07;46.92;;;30.40;;
33138;SDS011;19501;50.948;5.316;2022-08-19T01:40:44;44.95;;;31.30;;
33138;SDS011;19501;50.948;5.316;2022-08-19T01:43:10;45.70;;;31.63;;
33138;SDS011;19501;50.948;5.316;2022-08-19T01:45:36;48.08;;;33.20;;
33138;SDS011;19501;50.948;5.316;2022-08-19T01:48:05;48.45;;;32.10;;
33138;SDS011;19501;50.948;5.316;2022-08-19T01:50:32;46.85;;;31.75;;
33138;SDS011;19501;50.948;5.316;2022-08-19T01:52:59;47.17;;;31.75;;
33138;SDS011;19501;50.948;5.316;2022-08-19T01:55:25;49.95;;;32.25;;
33138;SDS011;19501;50.948;5.316;2022-08-19T01:57:52;50.80;;;33.83;;
33138;SDS011;19501;50.948;5.316;2022-08-19T02:00:21;49.67;;;34.22;;
33138;SDS011;19501;50.948;5.316;2022-08-19T02:02:52;47.13;;;31.40;;
33138;SDS011;19501;50.948;5.316;2022-08-19T02:05:17;47.08;;;31.88;;
33138;SDS011;19501;50.948;5.316;2022-08-19T02:07:46;50.20;;;32.85;;
33138;SDS011;19501;50.948;5.316;2022-08-19T02:10:18;48.25;;;31.85;;
33138;SDS011;19501;50.948;5.316;2022-08-19T02:12:46;49.08;;;32.42;;
33138;SDS011;19501;50.948;5.316;2022-08-19T02:15:16;48.03;;;31.25;;
33138;SDS011;19501;50.948;5.316;2022-08-19T02:17:43;48.30;;;32.20;;
33138;SDS011;19501;50.948;5.316;2022-08-19T02:20:09;48.53;;;33.00;;
33138;SDS011;19501;50.948;5.316;2022-08-19T02:22:36;49.95;;;33.30;;
33138;SDS011;19501;50.948;5.316;2022-08-19T02:25:01;49.65;;;33.15;;
33138;SDS011;19501;50.948;5.316;2022-08-19T02:27:29;46.40;;;30.15;;
33138;SDS011;19501;50.948;5.316;2022-08-19T02:29:55;49.17;;;32.50;;
33138;SDS011;19501;50.948;5.316;2022-08-19T02:32:20;50.97;;;32.00;;
33138;SDS011;19501;50.948;5.316;2022-08-19T02:34:48;45.65;;;29.95;;
33138;SDS011;19501;50.948;5.316;2022-08-19T02:37:14;39.88;;;27.30;;
33138;SDS011;19501;50.948;5.316;2022-08-19T02:39:58;44.75;;;30.20;;
33138;SDS011;19501;50.948;5.316;2022-08-19T02:42:24;50.25;;;31.05;;
33138;SDS011;19501;50.948;5.316;2022-08-19T02:44:50;44.00;;;28.35;;
33138;SDS011;19501;50.948;5.316;2022-08-19T02:47:17;46.20;;;28.75;;
33138;SDS011;19501;50.948;5.316;2022-08-19T02:49:44;46.58;;;29.50;;
33138;SDS011;19501;50.948;5.316;2022-08-19T02:52:10;50.10;;;31.30;;
33138;SDS011;19501;50.948;5.316;2022-08-19T02:54:36;49.63;;;32.38;;
33138;SDS011;19501;50.948;5.316;2022-08-19T02:57:03;50.88;;;33.22;;
33138;SDS011;19501;50.948;5.316;2022-08-19T02:59:31;55.08;;;34.55;;
33138;SDS011;19501;50.948;5.316;2022-08-19T03:01:57;54.00;;;32.78;;
33138;SDS011;19501;50.948;5.316;2022-08-19T03:04:31;53.43;;;34.63;;
33138;SDS011;19501;50.948;5.316;2022-08-19T03:06:57;56.55;;;35.67;;
33138;SDS011;19501;50.948;5.316;2022-08-19T03:09:23;62.22;;;38.88;;
33138;SDS011;19501;50.948;5.316;2022-08-19T03:11:49;58.50;;;37.22;;
33138;SDS011;19501;50.948;5.316;2022-08-19T03:14:15;62.75;;;37.35;;
33138;SDS011;19501;50.948;5.316;2022-08-19T03:16:44;67.30;;;40.85;;
33138;SDS011;19501;50.948;5.316;2022-08-19T03:19:17;64.45;;;37.92;;
33138;SDS011;19501;50.948;5.316;2022-08-19T03:21:47;66.93;;;41.10;;
33138;SDS011;19501;50.948;5.316;2022-08-19T03:24:14;68.43;;;40.90;;
33138;SDS011;19501;50.948;5.316;2022-08-19T03:26:45;68.68;;;41.90;;
33138;SDS011;19501;50.948;5.316;2022-08-19T03:29:12;66.60;;;40.08;;
33138;SDS011;19501;50.948;5.316;2022-08-19T03:31:39;70.40;;;41.75;;
33138;SDS011;19501;50.948;5.316;2022-08-19T03:34:08;68.20;;;41.42;;
33138;SDS011;19501;50.948;5.316;2022-08-19T03:36:36;70.80;;;41.70;;
33138;SDS011;19501;50.948;5.316;2022-08-19T03:39:02;62.85;;;38.63;;
33138;SDS011;19501;50.948;5.316;2022-08-19T03:41:35;72.07;;;42.97;;
33138;SDS011;19501;50.948;5.316;2022-08-19T03:44:05;65.90;;;39.78;;
33138;SDS011;19501;50.948;5.316;2022-08-19T03:46:32;69.55;;;40.30;;
33138;SDS011;19501;50.948;5.316;2022-08-19T03:48:59;67.07;;;40.53;;
33138;SDS011;19501;50.948;5.316;2022-08-19T03:51:27;68.70;;;41.40;;
33138;SDS011;19501;50.948;5.316;2022-08-19T03:53:59;67.90;;;42.37;;
33138;SDS011;19501;50.948;5.316;2022-08-19T03:56:26;71.28;;;41.95;;
33138;SDS011;19501;50.948;5.316;2022-08-19T03:58:53;67.65;;;41.03;;
33138;SDS011;19501;50.948;5.316;2022-08-19T04:01:22;75.32;;;43.60;;
33138;SDS011;19501;50.948;5.316;2022-08-19T04:03:51;70.13;;;40.13;;
33138;SDS011;19501;50.948;5.316;2022-08-19T04:09:09;74.55;;;43.15;;
33138;SDS011;19501;50.948;5.316;2022-08-19T04:11:46;61.83;;;37.83;;
33138;SDS011;19501;50.948;5.316;2022-08-19T04:14:16;70.30;;;41.20;;
33138;SDS011;19501;50.948;5.316;2022-08-19T04:16:43;72.63;;;42.13;;
33138;SDS011;19501;50.948;5.316;2022-08-19T04:19:10;67.93;;;40.63;;
33138;SDS011;19501;50.948;5.316;2022-08-19T04:21:36;63.25;;;37.45;;
33138;SDS011;19501;50.948;5.316;2022-08-19T04:24:02;64.45;;;38.22;;
33138;SDS011;19501;50.948;5.316;2022-08-19T04:26:30;65.22;;;38.08;;
33138;SDS011;19501;50.948;5.316;2022-08-19T04:29:03;68.13;;;38.55;;
33138;SDS011;19501;50.948;5.316;2022-08-19T04:31:32;67.97;;;37.10;;
33138;SDS011;19501;50.948;5.316;2022-08-19T04:34:03;69.10;;;39.85;;
33138;SDS011;19501;50.948;5.316;2022-08-19T04:36:31;66.65;;;37.55;;
33138;SDS011;19501;50.948;5.316;2022-08-19T04:39:00;82.03;;;44.45;;
33138;SDS011;19501;50.948;5.316;2022-08-19T04:41:32;69.18;;;39.35;;
33138;SDS011;19501;50.948;5.316;2022-08-19T04:44:17;59.83;;;36.05;;
33138;SDS011;19501;50.948;5.316;2022-08-19T04:46:47;63.90;;;36.35;;
33138;SDS011;19501;50.948;5.316;2022-08-19T04:49:14;67.85;;;38.20;;
33138;SDS011;19501;50.948;5.316;2022-08-19T04:51:44;71.07;;;38.72;;
33138;SDS011;19501;50.948;5.316;2022-08-19T04:54:12;64.38;;;37.20;;
33138;SDS011;19501;50.948;5.316;2022-08-19T04:56:40;71.20;;;40.30;;
33138;SDS011;19501;50.948;5.316;2022-08-19T04:59:06;68.13;;;40.67;;
33138;SDS011;19501;50.948;5.316;2022-08-19T05:01:35;70.40;;;41.60;;
33138;SDS011;19501;50.948;5.316;2022-08-19T05:04:02;67.40;;;39.70;;
33138;SDS011;19501;50.948;5.316;2022-08-19T05:06:30;70.60;;;40.45;;
33138;SDS011;19501;50.948;5.316;2022-08-19T05:09:00;67.47;;;38.20;;
33138;SDS011;19501;50.948;5.316;2022-08-19T05:11:30;64.97;;;36.50;;
33138;SDS011;19501;50.948;5.316;2022-08-19T05:13:58;65.57;;;36.45;;
33138;SDS011;19501;50.948;5.316;2022-08-19T05:16:27;65.70;;;37.42;;
33138;SDS011;19501;50.948;5.316;2022-08-19T05:18:53;64.28;;;38.60;;
33138;SDS011;19501;50.948;5.316;2022-08-19T05:21:39;71.72;;;37.17;;
33138;SDS011;19501;50.948;5.316;2022-08-19T05:24:24;62.33;;;34.35;;
33138;SDS011;19501;50.948;5.316;2022-08-19T05:26:52;62.92;;;34.30;;
33138;SDS011;19501;50.948;5.316;2022-08-19T05:29:21;64.78;;;36.15;;
33138;SDS011;19501;50.948;5.316;2022-08-19T05:31:50;67.60;;;37.17;;
33138;SDS011;19501;50.948;5.316;2022-08-19T05:34:17;68.50;;;38.60;;
33138;SDS011;19501;50.948;5.316;2022-08-19T05:36:46;82.28;;;46.35;;
33138;SDS011;19501;50.948;5.316;2022-08-19T05:39:13;86.32;;;48.95;;
33138;SDS011;19501;50.948;5.316;2022-08-19T05:41:48;92.05;;;50.35;;
33138;SDS011;19501;50.948;5.316;2022-08-19T05:44:19;86.07;;;47.83;;
33138;SDS011;19501;50.948;5.316;2022-08-19T05:46:46;85.68;;;48.17;;
33138;SDS011;19501;50.948;5.316;2022-08-19T05:49:13;94.40;;;48.92;;
33138;SDS011;19501;50.948;5.316;2022-08-19T05:51:40;88.03;;;49.55;;
33138;SDS011;19501;50.948;5.316;2022-08-19T05:54:07;88.95;;;48.10;;
33138;SDS011;19501;50.948;5.316;2022-08-19T05:56:33;87.53;;;49.08;;
33138;SDS011;19501;50.948;5.316;2022-08-19T05:59:02;85.07;;;45.95;;
33138;SDS011;19501;50.948;5.316;2022-08-19T06:01:29;93.03;;;49.63;;
33138;SDS011;19501;50.948;5.316;2022-08-19T06:03:54;81.38;;;45.30;;
33138;SDS011;19501;50.948;5.316;2022-08-19T06:06:20;79.68;;;46.72;;
33138;SDS011;19501;50.948;5.316;2022-08-19T06:08:46;82.90;;;44.88;;
33138;SDS011;19501;50.948;5.316;2022-08-19T06:11:20;85.60;;;46.05;;
33138;SDS011;19501;50.948;5.316;2022-08-19T06:14:08;86.57;;;46.92;;
33138;SDS011;19501;50.948;5.316;2022-08-19T06:16:38;79.47;;;45.95;;
33138;SDS011;19501;50.948;5.316;2022-08-19T06:19:06;78.10;;;42.72;;
33138;SDS011;19501;50.948;5.316;2022-08-19T06:21:34;77.72;;;42.03;;
33138;SDS011;19501;50.948;5.316;2022-08-19T06:24:05;77.07;;;41.47;;
33138;SDS011;19501;50.948;5.316;2022-08-19T06:26:37;70.72;;;40.78;;
33138;SDS011;19501;50.948;5.316;2022-08-19T06:29:05;71.90;;;41.38;;
33138;SDS011;19501;50.948;5.316;2022-08-19T06:31:32;68.45;;;38.67;;
33138;SDS011;19501;50.948;5.316;2022-08-19T06:34:00;68.85;;;38.53;;
33138;SDS011;19501;50.948;5.316;2022-08-19T06:36:29;70.40;;;39.40;;
33138;SDS011;19501;50.948;5.316;2022-08-19T06:38:59;66.00;;;36.97;;
33138;SDS011;19501;50.948;5.316;2022-08-19T06:41:49;65.45;;;37.55;;
33138;SDS011;19501;50.948;5.316;2022-08-19T06:44:18;65.70;;;36.30;;
33138;SDS011;19501;50.948;5.316;2022-08-19T06:46:44;93.43;;;38.58;;
33138;SDS011;19501;50.948;5.316;2022-08-19T06:49:10;68.35;;;36.30;;
33138;SDS011;19501;50.948;5.316;2022-08-19T06:51:39;69.18;;;36.42;;
33138;SDS011;19501;50.948;5.316;2022-08-19T06:54:07;69.82;;;34.78;;
33138;SDS011;19501;50.948;5.316;2022-08-19T06:56:33;73.47;;;34.53;;
33138;SDS011;19501;50.948;5.316;2022-08-19T06:59:00;59.65;;;31.23;;
33138;SDS011;19501;50.948;5.316;2022-08-19T07:01:33;60.78;;;32.20;;
33138;SDS011;19501;50.948;5.316;2022-08-19T07:04:07;55.47;;;29.75;;
33138;SDS011;19501;50.948;5.316;2022-08-19T07:06:34;54.63;;;29.08;;
33138;SDS011;19501;50.948;5.316;2022-08-19T07:09:00;51.92;;;27.90;;
33138;SDS011;19501;50.948;5.316;2022-08-19T07:11:27;47.97;;;25.58;;
33138;SDS011;19501;50.948;5.316;2022-08-19T07:13:53;53.50;;;26.67;;
33138;SDS011;19501;50.948;5.316;2022-08-19T07:16:19;54.38;;;26.80;;
33138;SDS011;19501;50.948;5.316;2022-08-19T07:18:46;49.05;;;26.02;;
33138;SDS011;19501;50.948;5.316;2022-08-19T07:21:15;49.55;;;25.00;;
33138;SDS011;19501;50.948;5.316;2022-08-19T07:23:43;47.95;;;24.67;;
33138;SDS011;19501;50.948;5.316;2022-08-19T07:26:14;47.45;;;23.90;;
33138;SDS011;19501;50.948;5.316;2022-08-19T07:28:46;49.20;;;25.83;;
33138;SDS011;19501;50.948;5.316;2022-08-19T07:31:14;44.38;;;24.55;;
33138;SDS011;19501;50.948;5.316;2022-08-19T07:33:43;40.70;;;22.20;;
33138;SDS011;19501;50.948;5.316;2022-08-19T07:36:09;42.08;;;21.35;;
33138;SDS011;19501;50.948;5.316;2022-08-19T07:38:37;43.67;;;21.42;;
33138;SDS011;19501;50.948;5.316;2022-08-19T07:41:05;44.85;;;22.20;;
33138;SDS011;19501;50.948;5.316;2022-08-19T07:43:31;46.88;;;23.92;;
33138;SDS011;19501;50.948;5.316;2022-08-19T07:45:57;45.97;;;21.40;;
33138;SDS011;19501;50.948;5.316;2022-08-19T07:48:26;48.03;;;22.02;;
33138;SDS011;19501;50.948;5.316;2022-08-19T07:50:53;49.55;;;21.80;;
33138;SDS011;19501;50.948;5.316;2022-08-19T07:53:21;45.08;;;23.15;;
33138;SDS011;19501;50.948;5.316;2022-08-19T07:55:47;44.05;;;21.42;;
33138;SDS011;19501;50.948;5.316;2022-08-19T07:58:14;41.63;;;21.83;;
33138;SDS011;19501;50.948;5.316;2022-08-19T08:00:46;42.90;;;22.43;;
33138;SDS011;19501;50.948;5.316;2022-08-19T08:03:13;45.92;;;22.83;;
33138;SDS011;19501;50.948;5.316;2022-08-19T08:05:40;44.13;;;23.05;;
33138;SDS011;19501;50.948;5.316;2022-08-19T08:08:24;43.70;;;23.33;;
33138;SDS011;19501;50.948;5.316;2022-08-19T08:10:58;43.87;;;22.33;;
33138;SDS011;19501;50.948;5.316;2022-08-19T08:13:25;39.85;;;20.92;;
33138;SDS011;19501;50.948;5.316;2022-08-19T08:15:52;43.78;;;22.45;;
33138;SDS011;19501;50.948;5.316;2022-08-19T08:18:17;38.83;;;19.60;;
33138;SDS011;19501;50.948;5.316;2022-08-19T08:20:43;40.90;;;20.48;;
33138;SDS011;19501;50.948;5.316;2022-08-19T08:23:09;34.63;;;19.58;;
33138;SDS011;19501;50.948;5.316;2022-08-19T08:25:50;40.25;;;20.52;;
33138;SDS011;19501;50.948;5.316;2022-08-19T08:28:17;38.00;;;21.00;;
33138;SDS011;19501;50.948;5.316;2022-08-19T08:30:44;35.97;;;20.13;;
33138;SDS011;19501;50.948;5.316;2022-08-19T08:33:12;46.35;;;21.55;;
33138;SDS011;19501;50.948;5.316;2022-08-19T08:35:40;36.65;;;20.70;;
33138;SDS011;19501;50.948;5.316;2022-08-19T08:38:07;37.22;;;20.58;;
33138;SDS011;19501;50.948;5.316;2022-08-19T08:40:47;37.55;;;19.25;;
33138;SDS011;19501;50.948;5.316;2022-08-19T08:46:04;34.45;;;18.48;;
33138;SDS011;19501;50.948;5.316;2022-08-19T08:51:19;34.55;;;18.90;;
33138;SDS011;19501;50.948;5.316;2022-08-19T08:53:49;30.90;;;17.75;;
33138;SDS011;19501;50.948;5.316;2022-08-19T08:56:17;35.45;;;17.20;;
33138;SDS011;19501;50.948;5.316;2022-08-19T09:01:45;30.48;;;15.52;;
33138;SDS011;19501;50.948;5.316;2022-08-19T09:04:11;27.33;;;15.43;;
33138;SDS011;19501;50.948;5.316;2022-08-19T09:07:02;29.88;;;15.50;;
33138;SDS011;19501;50.948;5.316;2022-08-19T09:09:52;35.92;;;17.05;;
33138;SDS011;19501;50.948;5.316;2022-08-19T09:12:36;33.05;;;17.90;;
33138;SDS011;19501;50.948;5.316;2022-08-19T09:15:06;28.52;;;16.35;;
33138;SDS011;19501;50.948;5.316;2022-08-19T09:17:37;29.85;;;15.32;;
33138;SDS011;19501;50.948;5.316;2022-08-19T09:22:39;32.22;;;16.75;;
33138;SDS011;19501;50.948;5.316;2022-08-19T09:25:09;29.65;;;14.43;;
33138;SDS011;19501;50.948;5.316;2022-08-19T09:27:38;29.85;;;15.43;;
33138;SDS011;19501;50.948;5.316;2022-08-19T09:30:05;25.67;;;14.05;;
33138;SDS011;19501;50.948;5.316;2022-08-19T09:32:32;27.00;;;12.38;;
33138;SDS011;19501;50.948;5.316;2022-08-19T09:34:58;24.70;;;12.07;;
33138;SDS011;19501;50.948;5.316;2022-08-19T09:37:25;21.55;;;10.57;;
33138;SDS011;19501;50.948;5.316;2022-08-19T09:39:51;22.00;;;10.95;;
33138;SDS011;19501;50.948;5.316;2022-08-19T09:42:18;21.73;;;10.40;;
33138;SDS011;19501;50.948;5.316;2022-08-19T09:44:44;23.83;;;11.73;;
33138;SDS011;19501;50.948;5.316;2022-08-19T09:47:10;24.10;;;10.52;;
33138;SDS011;19501;50.948;5.316;2022-08-19T09:49:38;24.10;;;11.13;;
33138;SDS011;19501;50.948;5.316;2022-08-19T09:52:05;22.35;;;11.43;;
33138;SDS011;19501;50.948;5.316;2022-08-19T09:54:37;20.23;;;9.90;;
33138;SDS011;19501;50.948;5.316;2022-08-19T09:57:04;20.33;;;8.65;;
33138;SDS011;19501;50.948;5.316;2022-08-19T09:59:30;16.90;;;7.80;;
33138;SDS011;19501;50.948;5.316;2022-08-19T10:01:55;18.58;;;8.95;;
33138;SDS011;19501;50.948;5.316;2022-08-19T10:04:21;18.33;;;8.13;;
33138;SDS011;19501;50.948;5.316;2022-08-19T10:06:48;17.40;;;7.40;;
33138;SDS011;19501;50.948;5.316;2022-08-19T10:09:16;17.85;;;8.45;;
33138;SDS011;19501;50.948;5.316;2022-08-19T10:11:43;18.58;;;8.88;;
33138;SDS011;19501;50.948;5.316;2022-08-19T10:14:14;20.33;;;8.20;;
33138;SDS011;19501;50.948;5.316;2022-08-19T10:16:41;20.58;;;8.32;;
33138;SDS011;19501;50.948;5.316;2022-08-19T10:19:07;16.80;;;7.20;;
33138;SDS011;19501;50.948;5.316;2022-08-19T10:21:34;18.50;;;8.18;;
33138;SDS011;19501;50.948;5.316;2022-08-19T10:24:01;18.95;;;7.95;;
33138;SDS011;19501;50.948;5.316;2022-08-19T10:26:33;19.27;;;7.45;;
33138;SDS011;19501;50.948;5.316;2022-08-19T10:29:03;21.25;;;8.93;;
33138;SDS011;19501;50.948;5.316;2022-08-19T10:31:30;18.40;;;8.52;;
33138;SDS011;19501;50.948;5.316;2022-08-19T10:33:58;19.30;;;8.57;;
33138;SDS011;19501;50.948;5.316;2022-08-19T10:36:28;19.15;;;8.80;;
33138;SDS011;19501;50.948;5.316;2022-08-19T10:38:57;20.55;;;8.00;;
33138;SDS011;19501;50.948;5.316;2022-08-19T10:41:27;17.92;;;7.95;;
33138;SDS011;19501;50.948;5.316;2022-08-19T10:43:55;18.45;;;8.25;;
33138;SDS011;19501;50.948;5.316;2022-08-19T10:46:23;19.27;;;7.97;;
33138;SDS011;19501;50.948;5.316;2022-08-19T10:48:50;20.95;;;9.27;;
33138;SDS011;19501;50.948;5.316;2022-08-19T10:51:16;19.27;;;7.70;;
33138;SDS011;19501;50.948;5.316;2022-08-19T10:54:00;16.40;;;7.68;;
33138;SDS011;19501;50.948;5.316;2022-08-19T10:56:27;15.10;;;6.93;;
33138;SDS011;19501;50.948;5.316;2022-08-19T10:59:12;20.88;;;8.25;;
33138;SDS011;19501;50.948;5.316;2022-08-19T11:01:39;16.67;;;7.53;;
33138;SDS011;19501;50.948;5.316;2022-08-19T11:04:06;16.23;;;7.10;;
33138;SDS011;19501;50.948;5.316;2022-08-19T11:06:35;16.00;;;7.35;;
33138;SDS011;19501;50.948;5.316;2022-08-19T11:09:02;16.77;;;7.80;;
33138;SDS011;19501;50.948;5.316;2022-08-19T11:11:30;16.88;;;7.70;;
33138;SDS011;19501;50.948;5.316;2022-08-19T11:13:57;19.05;;;7.35;;
33138;SDS011;19501;50.948;5.316;2022-08-19T11:16:24;18.45;;;8.27;;
33138;SDS011;19501;50.948;5.316;2022-08-19T11:18:54;15.75;;;7.03;;
33138;SDS011;19501;50.948;5.316;2022-08-19T11:21:27;15.23;;;6.70;;
33138;SDS011;19501;50.948;5.316;2022-08-19T11:23:58;19.90;;;8.23;;
33138;SDS011;19501;50.948;5.316;2022-08-19T11:26:27;17.48;;;8.02;;
33138;SDS011;19501;50.948;5.316;2022-08-19T11:28:55;16.38;;;7.50;;
33138;SDS011;19501;50.948;5.316;2022-08-19T11:31:23;16.85;;;7.03;;
33138;SDS011;19501;50.948;5.316;2022-08-19T11:33:51;16.20;;;7.53;;
33138;SDS011;19501;50.948;5.316;2022-08-19T11:36:18;17.70;;;7.97;;
33138;SDS011;19501;50.948;5.316;2022-08-19T11:38:46;13.77;;;6.80;;
33138;SDS011;19501;50.948;5.316;2022-08-19T11:41:15;16.77;;;7.47;;
33138;SDS011;19501;50.948;5.316;2022-08-19T11:43:43;17.30;;;8.25;;
33138;SDS011;19501;50.948;5.316;2022-08-19T11:46:09;17.63;;;7.40;;
33138;SDS011;19501;50.948;5.316;2022-08-19T11:48:40;17.38;;;7.55;;
33138;SDS011;19501;50.948;5.316;2022-08-19T11:51:08;16.80;;;7.43;;
33138;SDS011;19501;50.948;5.316;2022-08-19T11:53:37;15.90;;;7.43;;
33138;SDS011;19501;50.948;5.316;2022-08-19T11:56:06;14.13;;;6.22;;
33138;SDS011;19501;50.948;5.316;2022-08-19T11:58:32;16.33;;;6.88;;
33138;SDS011;19501;50.948;5.316;2022-08-19T12:00:59;16.10;;;7.47;;
33138;SDS011;19501;50.948;5.316;2022-08-19T12:03:25;16.67;;;6.20;;
33138;SDS011;19501;50.948;5.316;2022-08-19T12:05:51;15.52;;;6.60;;
33138;SDS011;19501;50.948;5.316;2022-08-19T12:08:19;14.20;;;6.55;;
33138;SDS011;19501;50.948;5.316;2022-08-19T12:10:45;17.27;;;7.18;;
33138;SDS011;19501;50.948;5.316;2022-08-19T12:13:11;18.70;;;6.95;;
33138;SDS011;19501;50.948;5.316;2022-08-19T12:15:44;14.43;;;6.65;;
33138;SDS011;19501;50.948;5.316;2022-08-19T12:18:11;21.45;;;8.88;;
33138;SDS011;19501;50.948;5.316;2022-08-19T12:20:39;16.65;;;7.28;;
33138;SDS011;19501;50.948;5.316;2022-08-19T12:23:07;12.43;;;6.50;;
33138;SDS011;19501;50.948;5.316;2022-08-19T12:25:37;16.08;;;6.90;;
33138;SDS011;19501;50.948;5.316;2022-08-19T12:28:18;16.38;;;6.57;;
33138;SDS011;19501;50.948;5.316;2022-08-19T12:30:46;19.25;;;8.30;;
33138;SDS011;19501;50.948;5.316;2022-08-19T12:33:13;18.27;;;6.90;;
33138;SDS011;19501;50.948;5.316;2022-08-19T12:35:40;16.45;;;7.75;;
33138;SDS011;19501;50.948;5.316;2022-08-19T12:38:07;18.25;;;7.93;;
33138;SDS011;19501;50.948;5.316;2022-08-19T12:40:33;16.08;;;7.68;;
33138;SDS011;19501;50.948;5.316;2022-08-19T12:42:59;14.90;;;6.22;;
33138;SDS011;19501;50.948;5.316;2022-08-19T12:45:24;17.02;;;7.10;;
33138;SDS011;19501;50.948;5.316;2022-08-19T12:47:50;15.98;;;6.32;;
33138;SDS011;19501;50.948;5.316;2022-08-19T12:50:18;16.35;;;6.35;;
33138;SDS011;19501;50.948;5.316;2022-08-19T12:52:46;13.93;;;5.72;;
33138;SDS011;19501;50.948;5.316;2022-08-19T12:55:13;15.80;;;6.28;;
33138;SDS011;19501;50.948;5.316;2022-08-19T12:57:39;12.18;;;5.32;;
33138;SDS011;19501;50.948;5.316;2022-08-19T13:02:35;14.35;;;5.53;;
33138;SDS011;19501;50.948;5.316;2022-08-19T13:05:03;13.07;;;6.13;;
33138;SDS011;19501;50.948;5.316;2022-08-19T13:07:31;12.90;;;5.75;;
33138;SDS011;19501;50.948;5.316;2022-08-19T13:09:57;12.77;;;6.07;;
33138;SDS011;19501;50.948;5.316;2022-08-19T13:12:22;12.77;;;5.50;;
33138;SDS011;19501;50.948;5.316;2022-08-19T13:14:49;14.40;;;6.25;;
33138;SDS011;19501;50.948;5.316;2022-08-19T13:17:15;12.00;;;5.43;;
33138;SDS011;19501;50.948;5.316;2022-08-19T13:19:41;12.23;;;5.40;;
33138;SDS011;19501;50.948;5.316;2022-08-19T13:22:09;11.68;;;5.15;;
33138;SDS011;19501;50.948;5.316;2022-08-19T13:24:35;12.23;;;5.25;;
33138;SDS011;19501;50.948;5.316;2022-08-19T13:27:02;18.02;;;5.60;;
33138;SDS011;19501;50.948;5.316;2022-08-19T13:29:27;16.92;;;5.50;;
33138;SDS011;19501;50.948;5.316;2022-08-19T13:32:11;11.68;;;4.90;;
33138;SDS011;19501;50.948;5.316;2022-08-19T13:34:55;10.55;;;4.35;;
33138;SDS011;19501;50.948;5.316;2022-08-19T13:37:21;11.98;;;4.57;;
33138;SDS011;19501;50.948;5.316;2022-08-19T13:40:06;10.57;;;4.57;;
33138;SDS011;19501;50.948;5.316;2022-08-19T13:42:37;9.95;;;4.50;;
33138;SDS011;19501;50.948;5.316;2022-08-19T13:45:03;9.00;;;3.65;;
33138;SDS011;19501;50.948;5.316;2022-08-19T13:47:31;10.55;;;4.10;;
33138;SDS011;19501;50.948;5.316;2022-08-19T13:49:59;11.07;;;4.43;;
33138;SDS011;19501;50.948;5.316;2022-08-19T13:52:27;12.30;;;4.78;;
33138;SDS011;19501;50.948;5.316;2022-08-19T13:54:53;15.43;;;4.38;;
33138;SDS011;19501;50.948;5.316;2022-08-19T13:57:18;13.38;;;4.68;;
33138;SDS011;19501;50.948;5.316;2022-08-19T13:59:44;13.85;;;4.30;;
33138;SDS011;19501;50.948;5.316;2022-08-19T14:02:10;11.40;;;4.40;;
33138;SDS011;19501;50.948;5.316;2022-08-19T14:04:36;10.93;;;5.22;;
33138;SDS011;19501;50.948;5.316;2022-08-19T14:07:02;9.98;;;4.60;;
33138;SDS011;19501;50.948;5.316;2022-08-19T14:09:28;7.47;;;3.72;;
33138;SDS011;19501;50.948;5.316;2022-08-19T14:11:54;9.45;;;4.28;;
33138;SDS011;19501;50.948;5.316;2022-08-19T14:14:20;10.13;;;3.97;;
33138;SDS011;19501;50.948;5.316;2022-08-19T14:16:46;9.55;;;4.43;;
33138;SDS011;19501;50.948;5.316;2022-08-19T14:19:13;9.43;;;4.18;;
33138;SDS011;19501;50.948;5.316;2022-08-19T14:21:38;9.90;;;3.88;;
33138;SDS011;19501;50.948;5.316;2022-08-19T14:24:05;10.07;;;4.43;;
33138;SDS011;19501;50.948;5.316;2022-08-19T14:26:32;11.13;;;4.53;;
33138;SDS011;19501;50.948;5.316;2022-08-19T14:28:57;12.32;;;4.47;;
33138;SDS011;19501;50.948;5.316;2022-08-19T14:31:23;9.82;;;4.38;;
33138;SDS011;19501;50.948;5.316;2022-08-19T14:33:49;13.13;;;4.72;;
33138;SDS011;19501;50.948;5.316;2022-08-19T14:36:16;11.38;;;4.72;;
33138;SDS011;19501;50.948;5.316;2022-08-19T14:38:43;10.40;;;4.60;;
33138;SDS011;19501;50.948;5.316;2022-08-19T14:41:10;12.40;;;4.85;;
33138;SDS011;19501;50.948;5.316;2022-08-19T14:43:48;9.80;;;4.22;;
33138;SDS011;19501;50.948;5.316;2022-08-19T14:46:15;10.32;;;4.20;;
33138;SDS011;19501;50.948;5.316;2022-08-19T14:48:45;12.85;;;4.68;;
33138;SDS011;19501;50.948;5.316;2022-08-19T14:51:11;8.10;;;3.80;;